Weather Data

Pearl Creek Farm: 8878 N Farm Road 75, Walnut Grove MO 65770

<== Previous Day (Thursday 14 Aug 2008) | Next Day (Saturday 16 Aug 2008) ==>

Summary Precipitation Data For Friday 15 August 2008

ElementValueUnits
PrecipitationT
Notes(none)
SourceSpringfield-Branson National Airport (SGF)

Summary Temperature Data For Friday 15 August 2008

ElementValueUnits
High Temperature78 oF
Low Temperature65 oF
Average Temperature70 oF
High Humidity91 %
Low Humidity56 %
Average Humidity76 %
SourceSpringfield-Branson National Airport (SGF)

Detail Temperature Data For Friday 15 August 2008

Date / TimeTemp (F)RH (%)Dew Pt (F)Report Date / TimeSource
2008-08-15 04:52:00 65 81 59.0 2017-12-29 19:14:24.89625 Springfield-Branson National Airport (SGF)
2008-08-15 06:52:00 67 79 60.0 2017-12-29 19:14:24.89625 Springfield-Branson National Airport (SGF)
2008-08-15 07:52:00 68 78 61.0 2017-12-29 19:14:24.89625 Springfield-Branson National Airport (SGF)
2008-08-15 08:52:00 70 73 61.0 2017-12-29 19:14:24.89625 Springfield-Branson National Airport (SGF)
2008-08-15 09:52:00 71 73 62.0 2017-12-29 19:14:24.89625 Springfield-Branson National Airport (SGF)
2008-08-15 10:52:00 73 69 62.0 2017-12-29 19:14:24.89625 Springfield-Branson National Airport (SGF)
2008-08-15 11:52:00 74 67 62.0 2017-12-29 19:14:24.89625 Springfield-Branson National Airport (SGF)
2008-08-15 12:52:00 75 64 62.0 2017-12-29 19:14:24.89625 Springfield-Branson National Airport (SGF)
2008-08-15 13:52:00 78 56 61.0 2017-12-29 19:14:24.89625 Springfield-Branson National Airport (SGF)
2008-08-15 14:52:00 76 62 62.0 2017-12-29 19:14:24.89625 Springfield-Branson National Airport (SGF)
2008-08-15 15:52:00 78 58 62.0 2017-12-29 19:14:24.89625 Springfield-Branson National Airport (SGF)
2008-08-15 16:52:00 77 60 62.0 2017-12-29 19:14:24.89625 Springfield-Branson National Airport (SGF)
2008-08-15 17:52:00 75 64 62.0 2017-12-29 19:14:24.89625 Springfield-Branson National Airport (SGF)
2008-08-15 18:52:00 74 71 64.0 2017-12-29 19:14:24.89625 Springfield-Branson National Airport (SGF)
2008-08-15 19:52:00 71 81 65.0 2017-12-29 19:14:24.89625 Springfield-Branson National Airport (SGF)
2008-08-15 20:52:00 69 87 65.0 2017-12-29 19:14:24.89625 Springfield-Branson National Airport (SGF)
2008-08-15 21:52:00 67 91 64.0 2017-12-29 19:14:24.89625 Springfield-Branson National Airport (SGF)
2008-08-15 22:52:00 66 90 63.0 2017-12-29 19:14:24.89625 Springfield-Branson National Airport (SGF)
2008-08-15 23:52:00 66 90 63.0 2017-12-29 19:14:24.89625 Springfield-Branson National Airport (SGF)
2008-08-15 00:52:00 66 87 62.0 2017-12-29 19:14:24.89625 Springfield-Branson National Airport (SGF)
2008-08-15 01:52:00 66 87 62.0 2017-12-29 19:14:24.89625 Springfield-Branson National Airport (SGF)
2008-08-15 02:52:00 65 90 62.0 2017-12-29 19:14:24.89625 Springfield-Branson National Airport (SGF)
2008-08-15 03:52:00 65 90 62.0 2017-12-29 19:14:24.89625 Springfield-Branson National Airport (SGF)
2008-08-15 05:52:00 65 81 59.0 2017-12-29 19:14:24.89625 Springfield-Branson National Airport (SGF)

A total of 24 rows are displayed.